Nearby METAR Reports

 

KSFB - Sanford/Orlando, Florida, USA
Distance from station: O 8mi, 12km
aktuell: Sat 01/19/19 6:53pm EST
klar
klar
 Wind von S
Wind: S 7 mph , 11 km/h
Temperatur: 73°F , 23°C
Taupunkt: 55°F , 13°C
Luftfeuchte: 53%
Luftdruck: 29.88 inHg , 1011.9 hPa
Clouds: klar
Visibility: 10 miles , 16 km
2019/01/19 23:53 KSFB 192353Z 17006KT 10SM CLR 23/13 A2988 RMK AO2 SLP117 T02280128 10261 20228 56013
KORL - Orlando, Florida, USA
Distance from station: S 15mi, 24km
aktuell: Sat 01/19/19 6:53pm EST
klar
klar
 Wind von S
Wind: S 8 mph , 13 km/h
Temperatur: 72°F , 22°C
Taupunkt: 55°F , 13°C
Luftfeuchte: 57%
Luftdruck: 29.88 inHg , 1011.9 hPa
Clouds: klar
Visibility: 10 miles , 16 km
2019/01/19 23:53 KORL 192353Z 18007KT 10SM CLR 22/13 A2988 RMK AO2 SLP123 T02220128 10261 20222 56013
 
KDED - Deland, Florida, USA
Distance from station: N 21mi, 34km
aktuell: Sat 01/19/19 7:35pm EST
klar
klar
 Wind von S
Wind: S 9 mph , 15 km/h
Temperatur: 70°F , 21°C
Taupunkt: 54°F , 12°C
Luftfeuchte: 57%
Luftdruck: 29.86 inHg , 1011.2 hPa
Clouds: klar
Visibility: 10 miles , 16 km
2019/01/20 00:35 KDED 200035Z AUTO 17008KT 10SM CLR 21/12 A2986 RMK AO2
KMCO - Orlando, Florida, USA
Distance from station: S 24mi, 39km
aktuell: Sat 01/19/19 6:53pm EST
teilweise bewölkt
teilweise bewölkt
 Wind von S
Wind: S 9 mph , 15 km/h
Temperatur: 70°F , 21°C
Taupunkt: 55°F , 13°C
Luftfeuchte: 60%
Luftdruck: 29.89 inHg , 1012.2 hPa
Clouds: teilweise bewölkt
Visibility: 10 miles , 16 km
Cloud details: Few Clouds 3000 ft
teilweise bewölkt 8000 ft
teilweise bewölkt 17000 ft
2019/01/19 23:53 KMCO 192353Z 17008KT 10SM FEW030 SCT080 SCT170 21/13 A2989 RMK AO2 SLP121 T02060128 10267 20200 57010
 
KLEE - Leesburg, Florida, USA
Distance from station: W 29mi, 47km
aktuell: Sat 01/19/19 6:53pm EST
klar
klar
 Wind von SSW
Wind: SSW 9 mph , 15 km/h
Temperatur: 72°F , 22°C
Taupunkt: 55°F , 13°C
Luftfeuchte: 57%
Luftdruck: 29.88 inHg , 1011.9 hPa
Clouds: klar
Visibility: 10 miles , 16 km
2019/01/19 23:53 KLEE 192353Z AUTO 20008KT 10SM CLR 22/13 A2988 RMK AO2 SLP118 T02170133 10250 20211 56011
KEVB - New Smyrna Beach, Florida, USA
Distance from station: NO 31mi, 49km
aktuell: Sat 01/19/19 7:47pm EST
klar
klar
 Wind von S
Wind: S 9 mph , 15 km/h
Temperatur: 68°F , 20°C
Taupunkt: 61°F , 16°C
Luftfeuchte: 78%
Luftdruck: 29.88 inHg , 1011.9 hPa
Clouds: klar
Visibility: 10 miles , 16 km
2019/01/20 00:47 KEVB 200047Z 18008KT 10SM CLR 20/16 A2988
 
KDAB - Daytona Beach, Florida, USA
Distance from station: NNO 33mi, 53km
aktuell: Sat 01/19/19 6:53pm EST
geschlossene Wolkendecke
geschlossene Wolkendecke
 Wind von varies
Wind: varies 7 mph , 11 km/h
Temperatur: 70°F , 21°C
Taupunkt: 63°F , 17°C
Luftfeuchte: 78%
Luftdruck: 29.87 inHg , 1011.5 hPa
Clouds: geschlossene Wolkendecke
Visibility: 10 miles , 16 km
Cloud details: teilweise bewölkt 6000 ft
geschlossene Wolkendecke 15000 ft
2019/01/19 23:53 KDAB 192353Z VRB06KT 10SM SCT060 OVC150 21/17 A2987 RMK AO2 SLP116 T02110167 10256 20211 56013
KISM - Kissimmee/Orland, Florida, USA
Distance from station: S 34mi, 55km
aktuell: Sat 01/19/19 6:56pm EST
teilweise bewölkt
teilweise bewölkt
 Wind von SSW
Wind: SSW 6 mph , 9 km/h
Temperatur: 72°F , 22°C
Taupunkt: 55°F , 13°C
Luftfeuchte: 57%
Luftdruck: 29.90 inHg , 1012.5 hPa
Clouds: teilweise bewölkt
Visibility: 10 miles , 16 km
Cloud details: teilweise bewölkt 6000 ft
2019/01/19 23:56 KISM 192356Z 20005KT 10SM SCT060 22/13 A2990 RMK AO2 SLP129 6//// T02220133 10272 20217 56011 PNO $
 
KTIX - Titusville, Florida, USA
Distance from station: OSO 38mi, 61km
aktuell: Sat 01/19/19 7:47pm EST
teilweise bewölkt
teilweise bewölkt
 Wind von S
Wind: S 8 mph , 13 km/h
Temperatur: 70°F , 21°C
Taupunkt: 57°F , 14°C
Luftfeuchte: 64%
Luftdruck: 29.90 inHg , 1012.5 hPa
Clouds: teilweise bewölkt
Visibility: 7 miles , 11 km
Cloud details: teilweise bewölkt 6500 ft
2019/01/20 00:47 KTIX 200047Z 17007KT 7SM SCT065 21/14 A2990
KOMN - Ormond Beach Vor, Florida, USA
Distance from station: NNO 39mi, 63km
aktuell: Sat 01/19/19 6:50pm EST
klar
klar
 Wind von SO
Wind: SO 5 mph , 7 km/h
Temperatur: 70°F , 21°C
Taupunkt: 59°F , 15°C
Luftfeuchte: 69%
Luftdruck: 29.87 inHg , 1011.5 hPa
Clouds: klar
Visibility: 10 miles , 16 km
2019/01/19 23:50 KOMN 192350Z 13004KT 10SM CLR 21/15 A2987 RMK LAST
 
KTTS - Nasa Shuttle Fcl, Florida, USA
Distance from station: OSO 39mi, 63km
aktuell: Sat 01/19/19 6:56pm EST
stark bewölkt
stark bewölkt
 Wind von S
Wind: S 10 mph , 17 km/h
Temperatur: 70°F , 21°C
Taupunkt: 63°F , 17°C
Luftfeuchte: 78%
Luftdruck: 29.89 inHg , 1012.2 hPa
Clouds: stark bewölkt
Visibility: 10 miles , 16 km
Cloud details: stark bewölkt 22000 ft
2019/01/19 23:56 KTTS 192356Z AUTO 17009KT 10SM BKN220 21/17 A2989 RMK AO2 SLP126 T02110173 10261 20211 57012 $
KVVG - The Villages, Florida, USA
Distance from station: WNW 40mi, 64km
aktuell: Wed 02/14/18 2:10pm EST
NOT Current

 Wind von calm
Wind: Windstill
Temperatur: 73°F , 23°C
Taupunkt: 66°F , 19°C
Luftfeuchte: 78%
Luftdruck: 30.29 inHg , 1025.7 hPa
Visibility: 10 miles , 16 km
2018/02/14 19:10 KVVG 141910Z AUTO 00000KT 10SM 23/19 A3029 RMK A01
 
KXMR - Cape Canaveral, Florida, USA
Distance from station: OSO 51mi, 83km
aktuell: Sat 01/19/19 6:56pm EST
Few Clouds
Few Clouds
 Wind von SSO
Wind: SSO 15 mph , 24 km/h
Temperatur: 70°F , 21°C
Taupunkt: 64°F , 18°C
Luftfeuchte: 83%
Luftdruck: 29.89 inHg , 1012.2 hPa
Clouds: Few Clouds
Visibility: 10 miles , 16 km
Cloud details: Few Clouds 22000 ft
2019/01/19 23:56 KXMR 192356Z AUTO 16013KT 10SM FEW220 21/18 A2989 RMK AO2 SLP125 T02120178 10245 20212 57012 $
KGIF - Winter Haven, Florida, USA
Distance from station: SSW 55mi, 88km
aktuell: Sat 01/19/19 6:53pm EST
teilweise bewölkt
teilweise bewölkt
 Wind von SSW
Wind: SSW 10 mph , 17 km/h
Temperatur: 73°F , 23°C
Taupunkt: 57°F , 14°C
Luftfeuchte: 57%
Luftdruck: 29.91 inHg , 1012.9 hPa
Clouds: teilweise bewölkt
Visibility: 10 miles , 16 km
Cloud details: teilweise bewölkt 6000 ft
2019/01/19 23:53 KGIF 192353Z AUTO 21009KT 10SM SCT060 23/14 A2991 RMK AO2 SLP127 T02280144 10278 20228 56007
 
KCOF - Patrick Afb/Coco, Florida, USA
Distance from station: SO 58mi, 94km
aktuell: Sat 01/19/19 6:56pm EST
klar
klar
 Wind von SO
Wind: SO 6 mph , 9 km/h
Temperatur: 70°F , 21°C
Taupunkt: 68°F , 20°C
Luftfeuchte: 94%
Luftdruck: 29.90 inHg , 1012.5 hPa
Clouds: klar
Visibility: 10 miles , 16 km
2019/01/19 23:56 KCOF 192356Z AUTO 14005KT 10SM CLR 21/20 A2990 RMK AO2 SLP130 T02110202 10246 20211 57010
KINF - Inverness, Florida, USA
Distance from station: W 59mi, 95km
aktuell: Sat 01/19/19 7:35pm EST
geschlossene Wolkendecke
geschlossene Wolkendecke
 Wind von S
Wind: S 6 mph , 9 km/h
Temperatur: 70°F , 21°C
Taupunkt: 61°F , 16°C
Luftfeuchte: 73%
Luftdruck: 29.88 inHg , 1011.9 hPa
Clouds: geschlossene Wolkendecke
Visibility: 10 miles , 16 km
Cloud details: teilweise bewölkt 4900 ft
stark bewölkt 8000 ft
geschlossene Wolkendecke 10000 ft
2019/01/20 00:35 KINF 200035Z AUTO 19005KT 10SM SCT049 BKN080 OVC100 21/16 A2988 RMK AO2
 
KOCF - Ocala Muni, Florida, USA
Distance from station: WNW 60mi, 96km
aktuell: Sat 01/19/19 7:51pm EST
stark bewölkt
stark bewölkt
 Wind von S
Wind: S 14 mph , 22 km/h
Temperatur: 72°F , 22°C
Taupunkt: 57°F , 14°C
Luftfeuchte: 61%
Luftdruck: 29.86 inHg , 1011.2 hPa
Clouds: stark bewölkt
Visibility: 10 miles , 16 km
Cloud details: Few Clouds 8000 ft
stark bewölkt 10000 ft
2019/01/20 00:51 KOCF 200051Z AUTO 19012KT 10SM FEW080 BKN100 22/14 A2986 RMK AO2 SLP112 T02220144 $
KZPH - Zephyrhills, Florida, USA
Distance from station: SW 61mi, 99km
aktuell: Sat 01/19/19 7:55pm EST
klar
klar
 Wind von S
Wind: S 10 mph , 17 km/h, Windböen: 17 mph , 28 km/h
Temperatur: 70°F , 21°C
Taupunkt: 59°F , 15°C
Luftfeuchte: 69%
Luftdruck: 29.90 inHg , 1012.5 hPa
Clouds: klar
Visibility: 10 miles , 16 km
2019/01/20 00:55 KZPH 200055Z AUTO 18009G15KT 10SM CLR 21/15 A2990 RMK AO2 T02100150 PWINO
 
KMLB - Melbourne, Florida, USA
Distance from station: SO 62mi, 100km
aktuell: Sat 01/19/19 6:53pm EST
klar
klar
 Wind von S
Wind: S 8 mph , 13 km/h
Temperatur: 73°F , 23°C
Taupunkt: 55°F , 13°C
Luftfeuchte: 53%
Luftdruck: 29.91 inHg , 1012.9 hPa
Clouds: klar
Visibility: 10 miles , 16 km
2019/01/19 23:53 KMLB 192353Z 18007KT 10SM CLR 23/13 A2991 RMK AO2 SLP128 T02280133 10278 20228 56009
KBOW - Bartow Municipal, Florida, USA
Distance from station: SSW 63mi, 102km
aktuell: Sat 01/19/19 7:35pm EST
geschlossene Wolkendecke
geschlossene Wolkendecke
 Wind von S
Wind: S 12 mph , 19 km/h
Temperatur: 70°F , 21°C
Taupunkt: 57°F , 14°C
Luftfeuchte: 64%
Luftdruck: 29.90 inHg , 1012.5 hPa
Clouds: geschlossene Wolkendecke
Visibility: 10 miles , 16 km
Cloud details: teilweise bewölkt 5500 ft
stark bewölkt 6500 ft
geschlossene Wolkendecke 9000 ft
2019/01/20 00:35 KBOW 200035Z AUTO 19010KT 10SM SCT055 BKN065 OVC090 21/14 A2990 RMK AO2